Greenehaven, Arizona
Current Conditions -  °F | °C
As of 3:53 AM on Friday 24 Oct 2014 (Local Time) from KPGA Reporting Station
Clear Clear  
Wind Chill: 57°   Ceiling: Unl
Heat Index: 57°   Visibility: 10mi
Dew Point: 32°   Wind: 5mph
Humidity: 39%   Direction: 290°WNW
Pressure: 30.2"   Gusts: NA
Location:  36.8282°N, 111.153°W
Report Text: KPGA 240953Z AUTO 29004KT 10SM CLR 14/00 A3020 RMK AO2 SLP176 T01390000
Loading
Personal Weather Stations






























Interactive Weather Map
Tropical Storm Tracking
New forecast layout! Learn more

10-Day Weather Forecast

Advertisements
Track Severe Weather on mobile